createdAt,value
2023-02-09T00:01:48.157Z,100369.97
2023-02-09T00:04:15.728Z,100367.38
2023-02-09T00:06:43.437Z,100366.53
2023-02-09T00:09:11.089Z,100361.25
2023-02-09T00:11:57.176Z,100360.31
2023-02-09T00:14:24.964Z,100364.66
2023-02-09T00:16:54.265Z,100370.78
2023-02-09T00:19:22.555Z,100369.91
2023-02-09T00:21:50.441Z,100374.19
2023-02-09T00:24:18.282Z,100371.34
2023-02-09T00:26:46.362Z,100362.50
2023-02-09T00:29:14.227Z,100362.25
2023-02-09T00:31:43.080Z,100357.84
2023-02-09T00:34:11.500Z,100355.25
2023-02-09T00:36:39.264Z,100354.47
2023-02-09T00:39:06.987Z,100354.44
2023-02-09T00:41:53.002Z,100348.38
2023-02-09T00:44:20.662Z,100356.97
2023-02-09T00:46:49.204Z,100354.34
2023-02-09T00:49:17.034Z,100348.13
2023-02-09T00:51:44.833Z,100355.97
2023-02-09T00:54:13.655Z,100354.94
2023-02-09T00:56:41.316Z,100351.34
2023-02-09T00:59:09.694Z,100353.16
2023-02-09T01:01:37.982Z,100354.78
2023-02-09T01:04:06.029Z,100356.41
2023-02-09T01:06:34.057Z,100356.31
2023-02-09T01:09:02.651Z,100356.31
2023-02-09T01:11:30.556Z,100357.94
2023-02-09T01:14:00.588Z,100353.31
2023-02-09T01:16:30.316Z,100345.41
2023-02-09T01:19:01.407Z,100351.56
2023-02-09T01:21:31.500Z,100348.84
2023-02-09T01:23:59.466Z,100347.22
2023-02-09T01:26:27.376Z,100345.25
2023-02-09T01:28:55.489Z,100343.47
2023-02-09T01:31:34.249Z,100339.91
2023-02-09T01:34:03.827Z,100341.59
2023-02-09T01:36:33.382Z,100343.09
2023-02-09T01:39:03.416Z,100346.59
2023-02-09T01:41:33.112Z,100341.28
2023-02-09T01:44:26.850Z,100340.31
2023-02-09T01:46:54.431Z,100342.03
2023-02-09T01:49:27.926Z,100337.66
2023-02-09T01:52:13.327Z,100332.31
2023-02-09T01:54:45.046Z,100328.72
2023-02-09T01:57:25.268Z,100335.88
2023-02-09T02:00:01.989Z,100327.03
2023-02-09T02:02:31.840Z,100334.00
2023-02-09T02:05:00.109Z,100327.81
2023-02-09T02:07:55.807Z,100323.34
2023-02-09T02:10:25.444Z,100314.00
2023-02-09T02:12:54.950Z,100313.13
2023-02-09T02:15:30.522Z,100305.69
2023-02-09T02:18:23.284Z,100310.97
2023-02-09T02:21:23.626Z,100305.81
2023-02-09T02:24:38.381Z,100300.69
2023-02-09T02:27:28.285Z,100302.31
2023-02-09T02:30:36.959Z,100304.28
2023-02-09T02:33:26.166Z,100302.22
2023-02-09T02:36:34.127Z,100317.19
2023-02-09T02:39:13.842Z,100308.09
2023-02-09T02:42:13.361Z,100301.81
2023-02-09T02:44:46.449Z,100299.91
2023-02-09T02:47:19.395Z,100308.63
2023-02-09T02:49:58.611Z,100313.91
2023-02-09T02:52:26.252Z,100309.66
2023-02-09T02:55:09.032Z,100308.63
2023-02-09T02:57:40.780Z,100315.53
2023-02-09T03:00:19.584Z,100315.53
2023-02-09T03:02:53.521Z,100319.66
2023-02-09T03:05:24.032Z,100315.25
2023-02-09T03:07:52.366Z,100316.06
2023-02-09T03:10:37.932Z,100315.00
2023-02-09T03:13:08.507Z,100312.38
2023-02-09T03:20:08.185Z,100316.00
2023-02-09T03:22:56.271Z,100317.28
2023-02-09T03:25:49.907Z,100328.63
2023-02-09T03:28:30.638Z,100321.47
2023-02-09T03:30:59.852Z,100325.13
2023-02-09T03:33:32.072Z,100323.34
2023-02-09T03:36:02.758Z,100328.72
2023-02-09T03:38:30.577Z,100329.75
2023-02-09T03:40:58.236Z,100324.25
2023-02-09T03:43:45.797Z,100324.38
2023-02-09T03:46:13.579Z,100325.38
2023-02-09T03:48:41.170Z,100326.22
2023-02-09T03:51:15.070Z,100333.78
2023-02-09T03:53:43.025Z,100334.22
2023-02-09T03:56:10.891Z,100347.44
2023-02-09T03:58:38.720Z,100345.72
2023-02-09T04:01:09.940Z,100330.25
2023-02-09T04:03:39.792Z,100328.19
2023-02-09T04:06:11.936Z,100338.31
2023-02-09T04:08:39.602Z,100333.50
2023-02-09T04:11:07.409Z,100330.75
2023-02-09T04:13:35.402Z,100338.78
2023-02-09T04:16:03.074Z,100343.41
2023-02-09T04:18:30.739Z,100349.06
2023-02-09T04:20:59.123Z,100340.53
2023-02-09T04:23:27.097Z,100345.66
2023-02-09T04:25:54.686Z,100353.72
2023-02-09T04:28:22.285Z,100354.66
2023-02-09T04:30:54.999Z,100352.22
2023-02-09T04:33:24.582Z,100355.63
2023-02-09T04:35:53.152Z,100354.22
2023-02-09T04:38:22.598Z,100357.91
2023-02-09T04:40:52.683Z,100347.66
2023-02-09T04:43:21.000Z,100343.69
2023-02-09T04:45:48.748Z,100355.63
2023-02-09T04:48:20.098Z,100357.72
2023-02-09T04:50:48.536Z,100362.03
2023-02-09T04:53:17.065Z,100351.69
2023-02-09T04:55:50.547Z,100348.28
2023-02-09T04:58:39.364Z,100347.25
2023-02-09T05:01:08.296Z,100352.22
2023-02-09T05:03:35.843Z,100350.06
2023-02-09T05:06:05.811Z,100345.28
2023-02-09T05:08:33.669Z,100336.38
2023-02-09T05:11:01.958Z,100341.53
2023-02-09T05:13:29.673Z,100348.41
2023-02-09T05:15:57.507Z,100341.84
2023-02-09T05:18:26.430Z,100332.53
2023-02-09T05:20:54.095Z,100340.22
2023-02-09T05:23:21.869Z,100344.97
2023-02-09T05:25:49.774Z,100346.75
2023-02-09T05:28:17.550Z,100349.09
2023-02-09T05:30:45.464Z,100339.25
2023-02-09T05:33:13.323Z,100349.84
2023-02-09T05:35:40.840Z,100343.22
2023-02-09T05:38:08.392Z,100328.09
2023-02-09T05:40:36.023Z,100323.22
2023-02-09T05:43:03.658Z,100325.19
2023-02-09T05:45:31.233Z,100334.84
2023-02-09T05:47:59.077Z,100321.81
2023-02-09T05:50:27.092Z,100316.34
2023-02-09T05:52:59.321Z,100325.06
2023-02-09T05:55:27.890Z,100321.31
2023-02-09T05:57:55.485Z,100329.50
2023-02-09T06:00:25.087Z,100327.00
2023-02-09T06:02:52.726Z,100321.31
2023-02-09T06:05:21.978Z,100326.16
2023-02-09T06:07:50.317Z,100332.63
2023-02-09T06:10:19.054Z,100326.78
2023-02-09T06:12:46.740Z,100331.84
2023-02-09T06:15:16.336Z,100330.34
2023-02-09T06:17:47.611Z,100344.72
2023-02-09T06:20:18.526Z,100354.75
2023-02-09T06:22:46.075Z,100351.72
2023-02-09T06:25:13.802Z,100355.44
2023-02-09T06:27:41.507Z,100356.19
2023-02-09T06:30:10.238Z,100362.75
2023-02-09T06:32:37.887Z,100365.13
2023-02-09T06:35:06.022Z,100356.31
2023-02-09T06:37:33.755Z,100367.88
2023-02-09T06:40:01.546Z,100367.63
2023-02-09T06:42:43.736Z,100382.53
2023-02-09T06:45:14.288Z,100385.91
2023-02-09T06:47:44.642Z,100387.63
2023-02-09T06:50:19.041Z,100393.22
2023-02-09T06:52:47.799Z,100395.22
2023-02-09T06:55:15.475Z,100398.91
2023-02-09T06:57:43.049Z,100398.34
2023-02-09T07:00:11.970Z,100401.72
2023-02-09T07:02:42.350Z,100402.69
2023-02-09T07:05:11.266Z,100401.19
2023-02-09T07:07:39.475Z,100402.66
2023-02-09T07:10:11.283Z,100411.16
2023-02-09T07:12:40.716Z,100406.25
2023-02-09T07:15:10.097Z,100411.00
2023-02-09T07:17:38.140Z,100407.53
2023-02-09T07:20:07.261Z,100416.56
2023-02-09T07:22:35.301Z,100415.81
2023-02-09T07:25:08.257Z,100423.38
2023-02-09T07:27:36.257Z,100417.31
2023-02-09T07:30:04.424Z,100422.69
2023-02-09T07:32:33.203Z,100418.81
2023-02-09T07:35:01.100Z,100420.25
2023-02-09T07:37:28.876Z,100414.28
2023-02-09T07:39:56.792Z,100420.56
2023-02-09T07:42:24.485Z,100422.75
2023-02-09T07:44:58.705Z,100423.88
2023-02-09T07:47:26.436Z,100415.34
2023-02-09T07:49:54.029Z,100427.25
2023-02-09T07:52:21.566Z,100420.38
2023-02-09T07:54:51.749Z,100418.97
2023-02-09T07:57:19.494Z,100416.28
2023-02-09T07:59:47.082Z,100410.56
2023-02-09T08:02:27.288Z,100409.84
2023-02-09T08:05:00.467Z,100428.59
2023-02-09T08:07:28.691Z,100421.34
2023-02-09T08:09:56.285Z,100422.59
2023-02-09T08:12:48.437Z,100414.72
2023-02-09T08:15:18.818Z,100413.22
2023-02-09T08:17:47.301Z,100418.59
2023-02-09T08:20:19.524Z,100417.06
2023-02-09T08:22:51.903Z,100420.81
2023-02-09T08:25:22.900Z,100421.00
2023-02-09T08:27:52.140Z,100428.91
2023-02-09T08:30:20.439Z,100429.22
2023-02-09T08:32:48.063Z,100432.22
2023-02-09T08:35:15.997Z,100421.00
2023-02-09T08:37:43.595Z,100421.47
2023-02-09T08:40:12.465Z,100418.13
2023-02-09T08:42:40.109Z,100425.44
2023-02-09T08:45:08.375Z,100421.19
2023-02-09T08:47:35.958Z,100424.16
2023-02-09T08:50:03.823Z,100421.59
2023-02-09T08:52:31.407Z,100418.25
2023-02-09T08:54:58.973Z,100413.78
2023-02-09T08:57:41.649Z,100424.81
2023-02-09T09:00:10.446Z,100422.94
2023-02-09T09:02:38.130Z,100420.72
2023-02-09T09:05:06.427Z,100422.41
2023-02-09T09:07:34.140Z,100423.22
2023-02-09T09:10:01.737Z,100421.63
2023-02-09T09:12:31.226Z,100427.13
2023-02-09T09:14:58.773Z,100421.97
2023-02-09T09:17:26.441Z,100425.59
2023-02-09T09:19:56.214Z,100420.41
2023-02-09T09:22:24.731Z,100421.31
2023-02-09T09:24:55.057Z,100427.13
2023-02-09T09:27:24.099Z,100409.81
2023-02-09T09:29:52.506Z,100426.50
2023-02-09T09:32:24.638Z,100429.59
2023-02-09T09:34:58.787Z,100422.28
2023-02-09T09:37:27.261Z,100426.16
2023-02-09T09:39:54.978Z,100422.16
2023-02-09T09:42:35.688Z,100434.13
2023-02-09T09:45:07.768Z,100438.94
2023-02-09T09:47:39.693Z,100429.78
2023-02-09T09:50:33.662Z,100428.06
2023-02-09T09:53:23.418Z,100423.44
2023-02-09T09:55:59.277Z,100430.88
2023-02-09T09:58:30.289Z,100433.13
2023-02-09T10:00:57.939Z,100441.72
2023-02-09T10:03:26.818Z,100432.03
2023-02-09T10:06:00.600Z,100431.69
2023-02-09T10:08:34.037Z,100426.53
2023-02-09T10:11:15.899Z,100430.09
2023-02-09T10:13:49.098Z,100431.91
2023-02-09T10:16:38.332Z,100434.78
2023-02-09T10:19:36.819Z,100431.50
2023-02-09T10:22:04.664Z,100428.00
2023-02-09T10:24:34.413Z,100436.16
2023-02-09T10:27:28.787Z,100430.88
2023-02-09T10:30:17.692Z,100423.72
2023-02-09T10:32:45.879Z,100429.19
2023-02-09T10:35:45.119Z,100426.53
2023-02-09T10:38:22.275Z,100424.84
2023-02-09T10:40:50.528Z,100415.09
2023-02-09T10:43:30.291Z,100419.44
2023-02-09T10:46:11.337Z,100417.84
2023-02-09T10:48:46.147Z,100416.97
2023-02-09T10:51:33.646Z,100411.38
2023-02-09T10:54:20.316Z,100407.97
2023-02-09T10:56:49.859Z,100404.59
2023-02-09T10:59:24.164Z,100392.19
2023-02-09T11:01:55.518Z,100394.00
2023-02-09T11:04:27.552Z,100383.34
2023-02-09T11:07:12.819Z,100392.25
2023-02-09T11:09:49.877Z,100401.09
2023-02-09T11:12:20.533Z,100388.34
2023-02-09T11:14:48.915Z,100388.22
2023-02-09T11:18:30.430Z,100383.13
2023-02-09T11:21:34.056Z,100379.69
2023-02-09T11:24:08.179Z,100384.91
2023-02-09T11:27:06.632Z,100381.56
2023-02-09T11:30:03.576Z,100370.91
2023-02-09T11:32:51.862Z,100363.75
2023-02-09T11:35:25.411Z,100356.69
2023-02-09T11:38:13.613Z,100355.75
2023-02-09T11:40:52.622Z,100353.91
2023-02-09T11:43:21.899Z,100347.63
2023-02-09T11:46:02.855Z,100337.94
2023-02-09T11:48:44.780Z,100331.72
2023-02-09T11:51:25.115Z,100338.72
2023-02-09T11:54:12.981Z,100328.03
2023-02-09T11:56:49.592Z,100331.66
2023-02-09T11:59:56.991Z,100331.56
2023-02-09T12:03:07.359Z,100325.22
2023-02-09T12:05:35.809Z,100321.47
2023-02-09T12:08:30.877Z,100311.78
2023-02-09T12:11:04.620Z,100312.56
2023-02-09T12:14:12.153Z,100314.50
2023-02-09T12:16:46.235Z,100309.34
2023-02-09T12:19:37.360Z,100310.00
2023-02-09T12:22:36.051Z,100299.72
2023-02-09T12:25:12.959Z,100304.66
2023-02-09T12:28:17.764Z,100300.75
2023-02-09T12:30:45.635Z,100295.69
2023-02-09T12:33:23.480Z,100298.09
2023-02-09T12:36:09.171Z,100300.22
2023-02-09T12:39:06.202Z,100292.03
2023-02-09T12:41:35.019Z,100284.56
2023-02-09T12:44:25.736Z,100288.44
2023-02-09T12:46:57.815Z,100278.44
2023-02-09T12:49:28.765Z,100278.47
2023-02-09T12:52:02.391Z,100276.63
2023-02-09T12:54:58.940Z,100272.13
2023-02-09T12:57:26.594Z,100276.34
2023-02-09T12:59:59.048Z,100272.44
2023-02-09T13:02:35.929Z,100270.91
2023-02-09T13:05:21.943Z,100272.94
2023-02-09T13:08:24.481Z,100269.94
2023-02-09T13:11:20.442Z,100263.63
2023-02-09T13:14:07.517Z,100273.44
2023-02-09T13:17:47.517Z,100274.13
2023-02-09T13:20:33.901Z,100263.84
2023-02-09T13:23:13.586Z,100262.78
2023-02-09T13:25:43.614Z,100267.84
2023-02-09T13:28:22.518Z,100264.88
2023-02-09T13:30:50.629Z,100260.38
2023-02-09T13:33:49.052Z,100267.75
2023-02-09T13:36:49.041Z,100261.97
2023-02-09T13:39:27.207Z,100262.88
2023-02-09T13:41:55.417Z,100268.09
2023-02-09T13:44:33.960Z,100268.94
2023-02-09T13:47:07.515Z,100269.50
2023-02-09T13:49:35.252Z,100270.81
2023-02-09T13:52:22.138Z,100267.78
2023-02-09T13:54:50.486Z,100262.22
2023-02-09T13:57:31.050Z,100283.63
2023-02-09T14:00:23.204Z,100276.88
2023-02-09T14:03:01.743Z,100269.50
2023-02-09T14:05:45.454Z,100271.72
2023-02-09T14:08:16.410Z,100268.59
2023-02-09T14:11:18.448Z,100274.72
2023-02-09T14:14:13.165Z,100269.25
2023-02-09T14:16:52.649Z,100280.53
2023-02-09T14:19:30.599Z,100281.69
2023-02-09T14:21:58.232Z,100280.06
2023-02-09T14:24:41.632Z,100275.94
2023-02-09T14:27:26.526Z,100282.06
2023-02-09T14:29:54.876Z,100280.59
2023-02-09T14:32:34.609Z,100292.25
2023-02-09T14:35:23.526Z,100302.53
2023-02-09T14:37:52.882Z,100297.13
2023-02-09T14:40:34.553Z,100288.09
2023-02-09T14:43:06.871Z,100294.28
2023-02-09T14:45:44.834Z,100295.84
2023-02-09T14:48:29.663Z,100299.53
2023-02-09T14:51:01.641Z,100289.34
2023-02-09T14:53:32.001Z,100295.25
2023-02-09T14:56:00.180Z,100291.09
2023-02-09T14:58:30.755Z,100293.81
2023-02-09T15:01:03.473Z,100295.91
2023-02-09T15:03:31.177Z,100289.41
2023-02-09T15:06:02.632Z,100297.94
2023-02-09T15:08:35.445Z,100295.97
2023-02-09T15:11:28.782Z,100301.19
2023-02-09T15:14:03.988Z,100292.91
2023-02-09T15:16:33.316Z,100295.81
2023-02-09T15:19:03.847Z,100297.72
2023-02-09T15:21:32.205Z,100296.59
2023-02-09T15:23:59.914Z,100298.56
2023-02-09T15:26:36.363Z,100301.81
2023-02-09T15:29:12.550Z,100300.03
2023-02-09T15:31:40.616Z,100303.50
2023-02-09T15:34:11.183Z,100301.06
2023-02-09T15:36:39.262Z,100301.69
2023-02-09T15:39:20.276Z,100313.66
2023-02-09T15:42:23.189Z,100313.09
2023-02-09T15:45:09.484Z,100318.88
2023-02-09T15:47:49.219Z,100325.47
2023-02-09T15:50:20.551Z,100321.41
2023-02-09T15:52:48.435Z,100324.84
2023-02-09T15:55:20.396Z,100318.59
2023-02-09T15:57:51.994Z,100328.41
2023-02-09T16:00:24.858Z,100337.00
2023-02-09T16:02:59.244Z,100336.06
2023-02-09T16:05:30.703Z,100347.16
2023-02-09T16:07:59.863Z,100353.09
2023-02-09T16:10:29.789Z,100353.81
2023-02-09T16:12:57.490Z,100358.97
2023-02-09T16:15:27.341Z,100356.66
2023-02-09T16:17:54.935Z,100358.06
2023-02-09T16:20:28.896Z,100369.81
2023-02-09T16:22:58.545Z,100363.97
2023-02-09T16:25:30.360Z,100362.75
2023-02-09T16:27:59.001Z,100370.25
2023-02-09T16:30:34.874Z,100376.31
2023-02-09T16:33:02.495Z,100371.13
2023-02-09T16:35:31.254Z,100374.06
2023-02-09T16:37:59.194Z,100374.28
2023-02-09T16:40:32.607Z,100374.63
2023-02-09T16:43:01.915Z,100379.31
2023-02-09T16:45:35.059Z,100389.41
2023-02-09T16:48:03.127Z,100376.38
2023-02-09T16:50:35.701Z,100389.88
2023-02-09T16:53:16.347Z,100390.94
2023-02-09T16:55:48.114Z,100383.88
2023-02-09T16:58:18.532Z,100391.19
2023-02-09T17:00:46.333Z,100392.16
2023-02-09T17:03:34.491Z,100393.09
2023-02-09T17:06:02.517Z,100395.78
2023-02-09T17:08:34.544Z,100400.22
2023-02-09T17:11:04.425Z,100397.56
2023-02-09T17:13:32.722Z,100402.06
2023-02-09T17:16:08.975Z,100399.41
2023-02-09T17:18:43.160Z,100402.06
2023-02-09T17:21:19.515Z,100404.75
2023-02-09T17:23:47.425Z,100412.75
2023-02-09T17:26:15.605Z,100407.41
2023-02-09T17:28:43.682Z,100410.09
2023-02-09T17:31:23.087Z,100405.63
2023-02-09T17:34:00.807Z,100415.41
2023-02-09T17:36:29.926Z,100417.22
2023-02-09T17:39:00.123Z,100416.28
2023-02-09T17:41:36.919Z,100426.94
2023-02-09T17:44:44.573Z,100425.13
2023-02-09T17:47:19.752Z,100436.66
2023-02-09T17:49:47.775Z,100442.88
2023-02-09T17:52:20.409Z,100442.72
2023-02-09T17:54:49.389Z,100450.72
2023-02-09T17:57:18.169Z,100446.38
2023-02-09T17:59:46.931Z,100448.88
2023-02-09T18:02:17.748Z,100455.97
2023-02-09T18:04:45.761Z,100459.53
2023-02-09T18:07:20.421Z,100456.84
2023-02-09T18:09:48.592Z,100453.06
2023-02-09T18:12:27.264Z,100460.19
2023-02-09T18:14:55.254Z,100454.84
2023-02-09T18:17:22.975Z,100463.81
2023-02-09T18:19:50.744Z,100468.78
2023-02-09T18:22:19.937Z,100481.34
2023-02-09T18:24:48.022Z,100472.38
2023-02-09T18:27:19.409Z,100474.09
2023-02-09T18:29:47.033Z,100476.47
2023-02-09T18:32:17.356Z,100465.94
2023-02-09T18:34:45.204Z,100472.88
2023-02-09T18:37:16.082Z,100473.78
2023-02-09T18:39:46.632Z,100479.97
2023-02-09T18:42:16.239Z,100486.81
2023-02-09T18:44:44.232Z,100488.97
2023-02-09T18:47:12.391Z,100501.34
2023-02-09T18:49:45.800Z,100506.91
2023-02-09T18:52:20.765Z,100501.59
2023-02-09T18:54:48.416Z,100512.88
2023-02-09T18:57:15.973Z,100501.59
2023-02-09T18:59:47.691Z,100512.41
2023-02-09T19:02:16.034Z,100517.81
2023-02-09T19:04:43.878Z,100513.28
2023-02-09T19:07:12.387Z,100513.19
2023-02-09T19:09:40.568Z,100523.72
2023-02-09T19:12:08.331Z,100521.06
2023-02-09T19:14:46.424Z,100523.88
2023-02-09T19:17:17.723Z,100528.97
2023-02-09T19:19:45.765Z,100523.56
2023-02-09T19:22:17.684Z,100536.88
2023-02-09T19:24:47.550Z,100530.50
2023-02-09T19:27:17.241Z,100538.56
2023-02-09T19:29:46.423Z,100540.34
2023-02-09T19:32:15.280Z,100549.34
2023-02-09T19:34:45.415Z,100549.13
2023-02-09T19:37:14.192Z,100555.22
2023-02-09T19:39:41.986Z,100551.72
2023-02-09T19:42:10.064Z,100562.22
2023-02-09T19:44:37.892Z,100560.28
2023-02-09T19:47:05.593Z,100552.38
2023-02-09T19:49:34.446Z,100558.44
2023-02-09T19:52:02.469Z,100559.50
2023-02-09T19:54:30.567Z,100565.25
2023-02-09T19:56:59.728Z,100559.97
2023-02-09T19:59:27.690Z,100558.03
2023-02-09T20:01:55.616Z,100562.28
2023-02-09T20:04:23.438Z,100561.59
2023-02-09T20:06:51.150Z,100559.72
2023-02-09T20:09:19.013Z,100564.63
2023-02-09T20:11:46.775Z,100562.78
2023-02-09T20:14:14.661Z,100562.88
2023-02-09T20:16:42.342Z,100568.09
2023-02-09T20:19:09.924Z,100562.88
2023-02-09T20:21:37.828Z,100570.00
2023-02-09T20:24:09.493Z,100572.47
2023-02-09T20:26:37.264Z,100560.13
2023-02-09T20:29:06.076Z,100564.69
2023-02-09T20:31:36.962Z,100557.56
2023-02-09T20:34:08.278Z,100564.53
2023-02-09T20:36:39.449Z,100560.19
2023-02-09T20:39:10.909Z,100558.38
2023-02-09T20:41:38.849Z,100560.00
2023-02-09T20:44:25.048Z,100562.59
2023-02-09T20:46:55.354Z,100567.88
2023-02-09T20:49:29.444Z,100572.06
2023-02-09T20:51:57.832Z,100572.81
2023-02-09T20:54:25.814Z,100569.19
2023-02-09T20:56:53.642Z,100572.75
2023-02-09T20:59:21.538Z,100575.50
2023-02-09T21:01:49.249Z,100581.56
2023-02-09T21:04:18.172Z,100579.59
2023-02-09T21:06:45.964Z,100586.69
2023-02-09T21:09:15.677Z,100594.63
2023-02-09T21:11:43.701Z,100592.81
2023-02-09T21:14:21.836Z,100590.22
2023-02-09T21:16:56.348Z,100589.16
2023-02-09T21:19:25.209Z,100593.56
2023-02-09T21:21:53.170Z,100597.91
2023-02-09T21:24:21.742Z,100594.84
2023-02-09T21:26:49.314Z,100603.47
2023-02-09T21:29:17.524Z,100600.00
2023-02-09T21:31:45.820Z,100597.25
2023-02-09T21:34:15.356Z,100591.97
2023-02-09T21:36:43.876Z,100601.78
2023-02-09T21:39:11.489Z,100600.03
2023-02-09T21:41:57.586Z,100604.03
2023-02-09T21:44:25.282Z,100610.31
2023-02-09T21:46:54.079Z,100613.97
2023-02-09T21:49:21.773Z,100617.41
2023-02-09T21:51:50.112Z,100617.25
2023-02-09T21:54:21.932Z,100628.53
2023-02-09T21:56:49.716Z,100621.34
2023-02-09T21:59:18.226Z,100621.31
2023-02-09T22:01:46.034Z,100622.22
2023-02-09T22:04:13.827Z,100623.13
2023-02-09T22:06:41.813Z,100629.38
2023-02-09T22:09:09.659Z,100635.50
2023-02-09T22:11:37.597Z,100638.97
2023-02-09T22:14:05.469Z,100641.50
2023-02-09T22:16:33.399Z,100648.56
2023-02-09T22:19:00.966Z,100637.34
2023-02-09T22:21:28.678Z,100656.59
2023-02-09T22:23:56.626Z,100647.66
2023-02-09T22:26:24.300Z,100657.94
2023-02-09T22:28:51.978Z,100655.28
2023-02-09T22:31:21.351Z,100657.69
2023-02-09T22:33:59.682Z,100664.88
2023-02-09T22:36:27.461Z,100660.41
2023-02-09T22:38:55.036Z,100663.69
2023-02-09T22:41:23.789Z,100663.63
2023-02-09T22:44:05.052Z,100667.56
2023-02-09T22:46:36.512Z,100664.94
2023-02-09T22:49:16.328Z,100667.66
2023-02-09T22:51:45.436Z,100677.41
2023-02-09T22:54:15.954Z,100670.97
2023-02-09T22:56:44.282Z,100666.44
2023-02-09T22:59:18.138Z,100680.94
2023-02-09T23:01:47.899Z,100688.72
2023-02-09T23:04:15.691Z,100682.56
2023-02-09T23:06:43.320Z,100693.19
2023-02-09T23:09:14.002Z,100683.09
2023-02-09T23:11:42.211Z,100679.72
2023-02-09T23:14:11.556Z,100683.47
2023-02-09T23:16:41.221Z,100687.91
2023-02-09T23:19:13.278Z,100699.97
2023-02-09T23:21:45.047Z,100698.09
2023-02-09T23:24:16.251Z,100704.13
2023-02-09T23:26:44.293Z,100699.78
2023-02-09T23:29:15.451Z,100694.94
2023-02-09T23:31:46.975Z,100707.03
2023-02-09T23:34:19.260Z,100708.03
2023-02-09T23:36:47.335Z,100703.19
2023-02-09T23:39:19.799Z,100704.34
2023-02-09T23:41:47.568Z,100703.72
2023-02-09T23:44:15.205Z,100721.28
2023-02-09T23:46:43.279Z,100717.47
2023-02-09T23:49:11.901Z,100728.50
2023-02-09T23:51:39.899Z,100727.19
2023-02-09T23:54:07.880Z,100727.06
2023-02-09T23:56:38.428Z,100727.88
2023-02-09T23:59:09.884Z,100731.06
